Time;durP1;ratioP1;P1;durP2;ratioP2;P2;SDS_P1;SDS_P2;PMS_P1;PMS_P2;Temp;Humidity;BMP_temperature;BMP_pressure;BME280_temperature;BME280_humidity;BME280_pressure;Samples;Min_cycle;Max_cycle;Signal;HPM_P1;HPM_P2
2024/04/22 00:02:09;;;;;;;5.60;2.80;;;;;;;7.85;82.61;102580.31;5638354;26;20022;-74
2024/04/22 00:04:41;;;;;;;5.07;2.90;;;;;;;7.83;82.86;102565.63;5635113;26;20456;-73
2024/04/22 00:07:13;;;;;;;3.60;2.97;;;;;;;7.81;83.33;102573.53;5639823;26;20020;-74
2024/04/22 00:09:45;;;;;;;3.67;2.80;;;;;;;7.82;83.94;102584.81;5634504;26;20018;-75
2024/04/22 00:12:17;;;;;;;3.55;2.72;;;;;;;7.84;84.63;102576.00;5642116;26;20030;-73
2024/04/22 00:14:49;;;;;;;4.53;3.38;;;;;;;7.77;85.39;102564.16;5636797;26;20004;-74
2024/04/22 00:17:21;;;;;;;3.70;3.00;;;;;;;7.76;84.24;102576.31;5633884;26;20014;-74
2024/04/22 00:19:53;;;;;;;3.92;3.00;;;;;;;7.78;84.61;102574.50;5640192;26;20689;-74
2024/04/22 00:22:25;;;;;;;3.63;2.85;;;;;;;7.70;86.96;102565.34;5637955;26;20003;-74
2024/04/22 00:24:57;;;;;;;3.63;2.60;;;;;;;7.67;85.61;102566.31;5637487;26;20045;-73
2024/04/22 00:27:29;;;;;;;4.27;2.90;;;;;;;7.67;85.50;102568.94;5640127;26;20026;-74
2024/04/22 00:30:01;;;;;;;4.45;2.75;;;;;;;7.59;86.83;102557.16;5640629;26;20304;-73
2024/04/22 00:32:33;;;;;;;4.72;2.78;;;;;;;7.46;86.04;102539.44;5639711;26;20015;-74
2024/04/22 00:35:05;;;;;;;3.38;2.67;;;;;;;7.53;86.92;102559.09;5631817;26;20421;-73
2024/04/22 00:37:37;;;;;;;3.55;2.85;;;;;;;7.47;87.37;102558.56;5639291;26;20023;-72
2024/04/22 00:40:09;;;;;;;4.85;3.17;;;;;;;7.42;87.28;102550.91;5639795;26;20389;-74
2024/04/22 00:42:43;;;;;;;4.03;3.00;;;;;;;7.41;87.53;102564.03;5636657;26;19999;-72
2024/04/22 00:45:15;;;;;;;4.90;3.10;;;;;;;7.40;88.11;102552.75;5640244;26;20361;-74
2024/04/22 00:47:47;;;;;;;3.20;2.80;;;;;;;7.45;88.07;102569.03;5635513;26;19999;-76
2024/04/22 00:50:19;;;;;;;4.55;3.10;;;;;;;7.31;87.36;102554.00;5637463;26;20047;-74
2024/04/22 00:52:52;;;;;;;4.22;2.95;;;;;;;7.36;87.94;102555.56;5640544;26;20393;-73
2024/04/22 00:55:25;;;;;;;3.47;2.85;;;;;;;7.45;88.32;102565.56;5639405;26;20004;-74
2024/04/22 00:58:02;;;;;;;3.40;2.83;;;;;;;7.35;88.55;102564.28;5642346;26;20047;-74
2024/04/22 01:00:35;;;;;;;4.80;3.10;;;;;;;7.28;88.82;102568.94;5637692;26;19999;-74
2024/04/22 01:03:07;;;;;;;4.07;3.05;;;;;;;7.26;87.98;102565.53;5636407;26;20022;-74
2024/04/22 01:05:39;;;;;;;4.78;3.20;;;;;;;7.24;90.37;102572.59;5638555;26;20026;-73
2024/04/22 01:08:11;;;;;;;3.50;3.15;;;;;;;7.16;90.10;102567.72;5640622;26;20376;-74
2024/04/22 01:10:43;;;;;;;4.38;2.90;;;;;;;7.15;89.54;102568.59;5635543;26;20013;-73
2024/04/22 01:13:15;;;;;;;3.97;3.00;;;;;;;7.17;90.95;102571.16;5637950;26;20387;-74
2024/04/22 01:15:47;;;;;;;3.72;3.08;;;;;;;7.08;89.97;102564.56;5635472;26;20003;-73
2024/04/22 01:18:19;;;;;;;3.75;3.17;;;;;;;7.12;91.87;102562.66;5639315;26;19995;-73
2024/04/22 01:20:51;;;;;;;3.42;2.90;;;;;;;7.08;93.91;102551.53;5635085;26;20007;-73
2024/04/22 01:23:23;;;;;;;3.92;3.00;;;;;;;7.10;91.92;102564.50;5637313;26;20027;-75
2024/04/22 01:25:57;;;;;;;3.40;2.55;;;;;;;7.05;92.52;102557.72;5630494;26;20063;-73
2024/04/22 01:28:29;;;;;;;4.43;3.42;;;;;;;7.05;93.61;102555.13;5638516;26;20016;-73
2024/04/22 01:31:01;;;;;;;3.97;3.45;;;;;;;7.06;93.12;102548.16;5634892;26;20534;-74
2024/04/22 01:33:33;;;;;;;3.83;3.10;;;;;;;7.05;92.70;102559.50;5637041;26;20015;-72
2024/04/22 01:36:05;;;;;;;4.95;3.47;;;;;;;7.00;93.23;102549.25;5638894;26;20456;-74
2024/04/22 01:38:37;;;;;;;3.38;2.88;;;;;;;7.08;94.80;102548.91;5633052;26;19996;-74
2024/04/22 01:41:09;;;;;;;3.47;2.67;;;;;;;7.06;92.73;102554.22;5642133;26;20338;-74
2024/04/22 01:43:41;;;;;;;6.18;3.30;;;;;;;7.09;94.42;102552.41;5640322;26;20097;-74
2024/04/22 01:46:12;;;;;;;5.57;3.65;;;;;;;7.09;94.29;102555.84;5643723;26;19999;-74
2024/04/22 01:48:44;;;;;;;4.45;3.72;;;;;;;7.10;93.20;102552.31;5636858;26;20479;-74
2024/04/22 01:51:16;;;;;;;4.93;3.50;;;;;;;7.11;94.33;102554.00;5634733;26;20011;-73
2024/04/22 01:53:48;;;;;;;4.18;3.17;;;;;;;7.07;95.12;102548.06;5637611;26;20031;-74
2024/04/22 01:56:20;;;;;;;5.50;3.97;;;;;;;7.11;93.73;102550.56;5633676;26;20538;-75
2024/04/22 01:58:53;;;;;;;3.97;3.40;;;;;;;7.10;96.04;102541.91;5631784;26;20022;-75
2024/04/22 02:01:25;;;;;;;3.95;3.05;;;;;;;7.12;93.68;102537.44;5635796;26;20031;-74
2024/04/22 02:03:57;;;;;;;5.38;3.38;;;;;;;7.09;95.12;102527.19;5624794;26;20486;-72
2024/04/22 02:06:29;;;;;;;4.18;2.90;;;;;;;7.13;94.88;102530.50;5630909;26;20049;-74
2024/04/22 02:09:01;;;;;;;3.55;2.72;;;;;;;7.13;95.11;102530.50;5640098;26;20446;-74
2024/04/22 02:11:33;;;;;;;6.72;3.42;;;;;;;7.13;94.18;102533.94;5637821;26;20011;-73
2024/04/22 02:14:04;;;;;;;3.67;2.72;;;;;;;7.13;93.50;102528.75;5637415;26;20006;-73
2024/04/22 02:16:36;;;;;;;5.32;3.30;;;;;;;7.09;93.66;102523.72;5637335;26;20022;-75
2024/04/22 02:19:08;;;;;;;3.80;2.85;;;;;;;7.13;92.44;102527.91;5633587;26;20003;-73
2024/04/22 02:21:40;;;;;;;5.50;3.40;;;;;;;7.06;94.29;102525.53;5633042;26;20531;-75
2024/04/22 02:24:12;;;;;;;4.18;3.47;;;;;;;7.11;95.21;102529.72;5635884;26;20003;-74
2024/04/22 02:26:44;;;;;;;3.72;2.70;;;;;;;7.06;93.31;102528.16;5638166;26;20009;-74
2024/04/22 02:29:16;;;;;;;4.60;3.17;;;;;;;7.07;94.85;102527.22;5637536;26;20624;-74
2024/04/22 02:31:48;;;;;;;4.88;3.30;;;;;;;7.01;94.98;102521.47;5633881;26;20011;-72
2024/04/22 02:34:20;;;;;;;4.38;2.85;;;;;;;7.03;94.50;102528.28;5638141;26;20052;-74
2024/04/22 02:36:52;;;;;;;4.50;3.38;;;;;;;7.03;93.99;102520.47;5631812;26;20336;-73
2024/04/22 02:39:24;;;;;;;4.28;3.28;;;;;;;6.97;93.71;102512.03;5643260;26;20010;-74
2024/04/22 02:41:56;;;;;;;3.70;3.30;;;;;;;6.94;94.85;102514.81;5638119;26;20013;-72
2024/04/22 02:44:28;;;;;;;4.50;3.30;;;;;;;6.86;94.79;102509.94;5635651;26;20340;-73
2024/04/22 02:46:59;;;;;;;3.70;2.90;;;;;;;6.86;94.28;102511.66;5635384;26;20057;-74
2024/04/22 02:49:31;;;;;;;4.43;3.40;;;;;;;6.80;95.53;102497.16;5637614;26;20002;-74
2024/04/22 02:52:04;;;;;;;4.38;3.35;;;;;;;6.76;95.25;102503.41;5634122;26;20015;-74
2024/04/22 02:54:35;;;;;;;3.80;3.13;;;;;;;6.74;96.36;102492.19;5638217;26;20484;-74
2024/04/22 02:57:07;;;;;;;3.85;3.00;;;;;;;6.68;94.51;102500.28;5636564;26;20004;-74
2024/04/22 02:59:39;;;;;;;3.60;2.78;;;;;;;6.57;95.90;102492.91;5637548;26;20020;-72
2024/04/22 03:02:11;;;;;;;5.60;3.38;;;;;;;6.56;96.94;102502.47;5635308;26;20011;-74
2024/04/22 03:04:47;;;;;;;3.00;2.70;;;;;;;6.54;97.34;102501.69;5638185;26;20359;-74
2024/04/22 03:07:19;;;;;;;4.95;3.63;;;;;;;6.39;97.56;102506.69;5638138;26;20044;-74
2024/04/22 03:09:51;;;;;;;4.00;3.10;;;;;;;6.38;95.96;102505.00;5638073;26;20499;-75
2024/04/22 03:12:23;;;;;;;4.18;3.38;;;;;;;6.29;95.73;102504.47;5638802;26;20018;-75
2024/04/22 03:14:55;;;;;;;4.22;2.97;;;;;;;6.28;97.11;102513.16;5640212;26;20003;-74
2024/04/22 03:17:26;;;;;;;4.57;3.63;;;;;;;6.16;97.04;102507.59;5639204;26;20011;-75
2024/04/22 03:19:58;;;;;;;5.35;3.47;;;;;;;6.14;97.29;102514.59;5634417;26;20440;-72
2024/04/22 03:22:30;;;;;;;5.25;3.25;;;;;;;6.08;97.54;102511.34;5639925;26;20456;-74
2024/04/22 03:25:05;;;;;;;4.35;3.30;;;;;;;6.09;97.71;102510.44;5636565;26;20030;-72
2024/04/22 03:27:36;;;;;;;4.32;3.30;;;;;;;6.09;98.70;102506.97;5645104;26;20030;-72
2024/04/22 03:30:09;;;;;;;4.68;3.38;;;;;;;6.02;97.34;102503.81;5637753;26;20564;-74
2024/04/22 03:32:41;;;;;;;3.88;3.17;;;;;;;6.02;97.81;102501.19;5641937;26;20373;-73
2024/04/22 03:35:13;;;;;;;4.00;3.35;;;;;;;5.98;98.20;102490.94;5644167;26;20011;-74
2024/04/22 03:37:44;;;;;;;4.13;3.30;;;;;;;6.05;98.85;102506.25;5640890;26;20000;-72
2024/04/22 03:40:16;;;;;;;6.03;3.65;;;;;;;5.95;98.01;102491.94;5642408;26;20548;-73
2024/04/22 03:42:48;;;;;;;5.38;3.10;;;;;;;5.95;98.58;102499.75;5638173;26;20038;-72
2024/04/22 03:45:20;;;;;;;5.93;3.50;;;;;;;5.91;97.74;102492.94;5641974;26;20018;-74
2024/04/22 03:50:42;;;;;;;3.83;3.00;;;;;;;5.88;99.13;102493.03;5645353;26;20027;-76
2024/04/22 03:53:14;;;;;;;3.63;3.22;;;;;;;5.86;99.19;102493.09;5637734;26;20022;-74
2024/04/22 03:55:46;;;;;;;3.88;3.03;;;;;;;5.80;99.85;102482.09;5639286;26;20015;-73
2024/04/22 03:58:18;;;;;;;4.68;3.65;;;;;;;5.76;100.00;102483.97;5642511;26;20008;-73
2024/04/22 04:00:50;;;;;;;4.22;3.38;;;;;;;5.77;100.00;102487.41;5635154;26;20505;-73
2024/04/22 04:03:22;;;;;;;4.60;3.50;;;;;;;5.70;99.68;102478.97;5639582;26;20488;-73
2024/04/22 04:05:54;;;;;;;3.95;3.38;;;;;;;5.72;100.00;102487.59;5633782;26;20007;-73
2024/04/22 04:08:26;;;;;;;4.30;3.42;;;;;;;5.66;100.00;102481.75;5650638;26;20019;-73
2024/04/22 04:11:00;;;;;;;4.90;3.72;;;;;;;5.67;100.00;102488.66;5637815;26;20039;-73
2024/04/22 04:13:32;;;;;;;5.28;3.78;;;;;;;5.63;100.00;102490.53;5641406;26;20123;-74
2024/04/22 04:16:05;;;;;;;4.38;3.33;;;;;;;5.60;100.00;102498.44;5643558;26;20469;-73
2024/04/22 04:18:38;;;;;;;4.90;3.53;;;;;;;5.64;100.00;102480.97;5638954;26;20040;-73
2024/04/22 04:21:10;;;;;;;;;;;;;;;6.32;95.35;102496.50;5639798;26;20965;-74
2024/04/22 04:23:41;;;;;;;3.95;3.10;;;;;;;5.64;99.25;102500.00;5639084;26;20311;-73
2024/04/22 04:26:13;;;;;;;5.35;3.30;;;;;;;5.59;100.00;102502.78;5641256;26;20039;-74
2024/04/22 04:28:49;;;;;;;4.25;3.42;;;;;;;5.63;100.00;102487.06;5640532;26;20040;-73
2024/04/22 04:31:21;;;;;;;4.55;3.60;;;;;;;5.51;100.00;102488.38;5641964;26;20031;-72
2024/04/22 04:33:52;;;;;;;4.68;3.35;;;;;;;5.51;100.00;102498.78;5643136;26;20078;-73
2024/04/22 04:36:25;;;;;;;4.93;3.40;;;;;;;5.49;100.00;102498.84;5646818;26;20014;-72
2024/04/22 04:38:57;;;;;;;5.73;3.90;;;;;;;5.50;100.00;102497.94;5638942;26;20031;-72
2024/04/22 04:41:29;;;;;;;5.10;3.60;;;;;;;5.46;100.00;102496.34;5639722;26;20015;-72
2024/04/22 04:44:01;;;;;;;5.25;4.00;;;;;;;5.45;100.00;102502.44;5633660;26;20007;-72
2024/04/22 04:46:33;;;;;;;4.22;3.47;;;;;;;5.42;100.00;102505.19;5644428;26;20004;-74
2024/04/22 04:49:05;;;;;;;4.53;3.70;;;;;;;5.42;100.00;102501.69;5642737;26;20063;-72
2024/04/22 04:51:37;;;;;;;4.32;3.75;;;;;;;5.42;100.00;102489.59;5640171;26;20043;-73
2024/04/22 04:54:09;;;;;;;4.95;3.60;;;;;;;5.43;100.00;102499.06;5639501;26;19999;-72
2024/04/22 04:56:41;;;;;;;4.60;3.63;;;;;;;5.43;100.00;102506.88;5638934;26;20736;-73
2024/04/22 04:59:13;;;;;;;4.20;3.60;;;;;;;5.46;100.00;102504.16;5638990;26;20038;-73
2024/04/22 05:01:44;;;;;;;6.65;3.75;;;;;;;5.45;100.00;102505.03;5641782;26;20018;-73
2024/04/22 05:04:16;;;;;;;5.47;4.10;;;;;;;5.43;100.00;102500.81;5636040;26;20564;-73
2024/04/22 05:06:49;;;;;;;6.43;3.90;;;;;;;5.44;100.00;102500.75;5641016;26;20011;-73
2024/04/22 05:09:21;;;;;;;6.03;4.07;;;;;;;5.47;100.00;102507.59;5636157;26;20051;-74
2024/04/22 05:11:53;;;;;;;5.78;3.85;;;;;;;5.51;100.00;102496.19;5641163;26;20517;-74
2024/04/22 05:14:25;;;;;;;7.60;4.00;;;;;;;5.53;100.00;102487.44;5638665;26;19999;-73
2024/04/22 05:16:56;;;;;;;4.55;4.03;;;;;;;5.69;100.00;102495.50;5645082;26;19995;-73
2024/04/22 05:19:32;;;;;;;5.43;4.10;;;;;;;5.86;100.00;102494.84;5639222;26;20042;-72
2024/04/22 05:22:03;;;;;;;5.47;4.72;;;;;;;5.89;100.00;102494.72;5640844;26;20427;-72
2024/04/22 05:24:35;;;;;;;4.32;3.80;;;;;;;5.97;100.00;102497.06;5643459;26;20021;-73
2024/04/22 05:27:07;;;;;;;6.68;3.85;;;;;;;6.01;100.00;102494.28;5637109;26;20021;-73
2024/04/22 05:29:39;;;;;;;4.78;3.95;;;;;;;5.95;100.00;102468.53;5640318;26;20486;-73
2024/04/22 05:32:11;;;;;;;7.75;4.05;;;;;;;6.10;100.00;102495.69;5641884;26;20017;-73
2024/04/22 05:37:34;;;;;;;6.53;4.32;;;;;;;6.18;100.00;102492.78;5642753;26;20035;-74
2024/04/22 05:40:07;;;;;;;5.80;4.65;;;;;;;6.23;100.00;102490.84;5634457;26;20074;-73
2024/04/22 05:42:39;;;;;;;5.80;3.97;;;;;;;6.30;100.00;102492.28;5632928;26;20027;-73
2024/04/22 05:45:11;;;;;;;6.28;4.15;;;;;;;6.36;100.00;102493.78;5643269;26;20373;-73
2024/04/22 05:47:42;;;;;;;5.13;4.28;;;;;;;6.44;100.00;102496.91;5645199;26;19999;-73
2024/04/22 05:50:14;;;;;;;5.63;4.15;;;;;;;6.45;100.00;102494.25;5642972;26;20069;-73
2024/04/22 05:52:46;;;;;;;4.95;4.20;;;;;;;6.48;100.00;102491.53;5637684;26;20151;-74
2024/04/22 05:55:18;;;;;;;6.63;3.85;;;;;;;6.55;100.00;102494.72;5637228;26;20022;-73
2024/04/22 05:57:51;;;;;;;6.57;3.78;;;;;;;6.57;100.00;102488.53;5625732;26;19999;-72
2024/04/22 06:00:23;;;;;;;8.27;4.38;;;;;;;6.63;100.00;102497.88;5632346;26;20003;-75
2024/04/22 06:02:55;;;;;;;4.85;4.00;;;;;;;6.64;100.00;102490.91;5642029;26;20015;-74
2024/04/22 06:05:28;;;;;;;5.68;4.03;;;;;;;6.70;100.00;102483.66;5648241;26;19999;-75
2024/04/22 06:07:59;;;;;;;7.03;3.90;;;;;;;6.76;100.00;102488.63;5622699;26;20017;-75
2024/04/22 06:10:31;;;;;;;4.78;3.63;;;;;;;6.78;100.00;102483.31;5643535;26;20016;-73
2024/04/22 06:13:05;;;;;;;5.07;4.15;;;;;;;6.81;100.00;102485.81;5630939;26;19999;-75
2024/04/22 06:15:37;;;;;;;5.50;3.65;;;;;;;6.91;100.00;102478.47;5632083;26;20011;-74
2024/04/22 06:18:08;;;;;;;6.88;3.25;;;;;;;6.95;100.00;102480.00;5629186;26;20112;-73
2024/04/22 06:20:40;;;;;;;6.43;3.30;;;;;;;6.99;100.00;102485.03;5631155;26;20012;-73
2024/04/22 06:23:12;;;;;;;5.18;3.80;;;;;;;7.06;100.00;102475.19;5640658;26;20018;-73
2024/04/22 06:25:45;;;;;;;4.10;3.15;;;;;;;7.15;100.00;102479.97;5631902;26;20007;-73
2024/04/22 06:28:17;;;;;;;6.90;3.80;;;;;;;7.30;100.00;102478.44;5631593;26;20032;-73
2024/04/22 06:30:49;;;;;;;4.65;3.55;;;;;;;7.39;100.00;102478.06;5623432;26;20008;-72
2024/04/22 06:33:21;;;;;;;6.28;3.20;;;;;;;7.45;99.17;102475.16;5636519;26;20077;-76
2024/04/22 06:35:53;;;;;;;3.58;2.75;;;;;;;7.53;96.12;102478.25;5639084;26;20051;-74
2024/04/22 06:38:27;;;;;;;7.50;3.30;;;;;;;7.57;97.48;102468.53;5638410;26;20035;-75
2024/04/22 06:40:59;;;;;;;3.92;2.85;;;;;;;7.67;96.48;102472.41;5635827;26;20118;-75
2024/04/22 06:43:43;;;;;;;5.25;3.30;;;;;;;7.82;95.06;102475.22;5634655;26;20058;-73
2024/04/22 06:46:15;;;;;;;3.80;3.00;;;;;;;7.90;93.12;102468.72;5633172;26;20043;-74
2024/04/22 06:48:47;;;;;;;7.18;3.20;;;;;;;7.90;89.69;102462.66;5634540;26;20370;-73
2024/04/22 06:51:19;;;;;;;6.03;3.25;;;;;;;8.03;93.51;102467.22;5633298;26;20015;-75
2024/04/22 06:53:51;;;;;;;8.38;3.53;;;;;;;8.16;88.42;102462.25;5632977;26;20050;-74
2024/04/22 06:56:23;;;;;;;4.25;2.80;;;;;;;8.26;86.92;102471.31;5637325;26;19999;-73
2024/04/22 06:58:55;;;;;;;4.45;2.60;;;;;;;8.34;85.88;102468.34;5635472;26;20000;-75
2024/04/22 07:01:27;;;;;;;6.00;2.65;;;;;;;8.48;81.08;102472.88;5637779;26;20004;-72
2024/04/22 07:03:59;;;;;;;3.92;2.60;;;;;;;8.55;80.32;102463.81;5648391;26;20025;-76
2024/04/22 07:06:33;;;;;;;4.97;2.20;;;;;;;8.73;82.37;102459.44;5644826;26;20385;-74
2024/04/22 07:09:09;;;;;;;3.72;2.30;;;;;;;8.80;82.68;102457.38;5636486;26;20039;-73
2024/04/22 07:11:41;;;;;;;3.72;2.30;;;;;;;8.91;77.74;102457.66;5640562;26;20446;-74
2024/04/22 07:14:14;;;;;;;3.90;2.83;;;;;;;9.06;77.10;102461.25;5638085;26;20007;-74
2024/04/22 07:16:53;;;;;;;4.07;2.67;;;;;;;9.31;75.32;102461.63;5638390;26;20011;-73
2024/04/22 07:19:25;;;;;;;5.00;2.53;;;;;;;9.26;71.95;102461.03;5637131;26;20495;-72
2024/04/22 07:21:58;;;;;;;3.92;1.95;;;;;;;9.33;69.45;102457.16;5642335;26;20042;-74
2024/04/22 07:24:30;;;;;;;4.43;2.45;;;;;;;9.41;67.85;102444.50;5641710;26;20043;-73
2024/04/22 07:27:02;;;;;;;7.63;2.22;;;;;;;9.53;67.28;102450.84;5647140;26;20536;-74
2024/04/22 07:29:34;;;;;;;2.95;2.15;;;;;;;9.65;68.44;102449.31;5636828;26;20005;-73
2024/04/22 07:32:07;;;;;;;3.03;2.00;;;;;;;9.77;67.86;102442.56;5636594;26;20364;-73
2024/04/22 07:34:42;;;;;;;3.30;2.15;;;;;;;9.91;68.47;102435.63;5629166;26;20721;-74
2024/04/22 07:37:20;;;;;;;4.65;2.08;;;;;;;10.09;65.58;102446.84;5639380;26;20046;-74
2024/04/22 07:39:56;;;;;;;2.75;1.92;;;;;;;10.05;67.23;102440.09;5643248;26;20051;-73
2024/04/22 07:42:28;;;;;;;4.10;2.22;;;;;;;10.22;66.41;102439.09;5646560;26;20031;-76
2024/04/22 07:45:00;;;;;;;3.13;1.83;;;;;;;10.29;63.48;102444.88;5637910;26;20015;-74
2024/04/22 07:47:32;;;;;;;6.25;2.08;;;;;;;10.37;64.05;102437.41;5634652;26;20007;-75
2024/04/22 07:50:05;;;;;;;2.83;2.10;;;;;;;10.47;59.86;102439.41;5641994;26;21591;-73
2024/04/22 07:52:39;;;;;;;5.75;2.15;;;;;;;10.55;61.98;102431.09;5631999;26;20438;-73
2024/04/22 07:55:12;;;;;;;2.30;1.65;;;;;;;10.56;59.65;102438.00;5638012;26;20031;-74
2024/04/22 07:57:46;;;;;;;3.28;2.20;;;;;;;10.75;59.88;102435.13;5635983;26;20027;-72
2024/04/22 08:00:19;;;;;;;3.88;2.33;;;;;;;10.78;58.23;102434.94;5639333;26;20011;-73
2024/04/22 08:02:57;;;;;;;2.67;2.03;;;;;;;11.04;57.89;102433.38;5644517;26;20032;-74
2024/04/22 08:05:29;;;;;;;4.55;2.38;;;;;;;11.07;56.01;102442.84;5637872;26;21154;-75
2024/04/22 08:08:05;;;;;;;2.22;1.77;;;;;;;11.05;54.39;102444.69;5636192;26;20501;-73
2024/04/22 08:10:41;;;;;;;3.20;2.05;;;;;;;11.02;55.33;102427.34;5639019;26;20385;-72
2024/04/22 08:13:13;;;;;;;4.43;1.90;;;;;;;11.16;54.80;102432.59;5638627;26;20039;-75
2024/04/22 08:15:45;;;;;;;2.78;2.05;;;;;;;11.22;51.75;102418.28;5639540;26;20030;-76
2024/04/22 08:18:17;;;;;;;3.95;1.60;;;;;;;11.30;51.28;102429.13;5638270;26;20380;-73
2024/04/22 08:20:49;;;;;;;2.75;1.67;;;;;;;11.33;51.82;102421.06;5641319;26;20047;-74
2024/04/22 08:23:21;;;;;;;2.38;1.45;;;;;;;11.51;53.34;102434.78;5636630;26;20013;-73
2024/04/22 08:25:53;;;;;;;3.03;1.40;;;;;;;11.59;54.08;102429.06;5632849;26;20145;-74
2024/04/22 08:28:25;;;;;;;3.90;1.75;;;;;;;11.68;53.36;102429.31;5630788;26;20031;-76
2024/04/22 08:31:05;;;;;;;4.78;1.77;;;;;;;11.85;54.15;102435.28;5632869;26;20439;-74
2024/04/22 08:33:37;;;;;;;3.65;1.70;;;;;;;11.73;52.61;102431.66;5642293;26;20003;-74
2024/04/22 08:36:09;;;;;;;4.35;1.55;;;;;;;11.79;51.75;102420.75;5630192;26;20080;-74
2024/04/22 08:38:41;;;;;;;5.67;1.60;;;;;;;11.98;50.32;102437.97;5637745;26;20034;-73
2024/04/22 08:41:16;;;;;;;3.33;1.48;;;;;;;11.99;50.39;102435.25;5628526;26;20083;-75
2024/04/22 08:43:49;;;;;;;3.42;1.73;;;;;;;12.12;52.90;102433.50;5624976;26;20004;-76
2024/04/22 08:46:21;;;;;;;3.40;1.55;;;;;;;12.09;48.64;102422.38;5630762;26;20006;-73
2024/04/22 08:48:53;;;;;;;4.13;1.38;;;;;;;12.12;50.13;102427.38;5640743;26;20405;-74
2024/04/22 08:51:25;;;;;;;3.33;1.67;;;;;;;12.21;49.38;102425.97;5637567;26;20023;-74
2024/04/22 08:53:58;;;;;;;5.85;1.50;;;;;;;12.24;49.40;102429.22;5639573;26;20043;-74
2024/04/22 08:56:30;;;;;;;3.03;1.52;;;;;;;12.29;50.44;102431.53;5639385;26;20086;-73
2024/04/22 08:59:02;;;;;;;3.60;1.42;;;;;;;12.25;49.28;102425.66;5632826;26;20007;-75
2024/04/22 09:01:34;;;;;;;5.63;1.60;;;;;;;12.34;51.89;102430.28;5634216;26;19995;-74
2024/04/22 09:04:07;;;;;;;4.43;1.40;;;;;;;12.47;50.39;102432.09;5640511;26;19995;-74
2024/04/22 09:06:39;;;;;;;3.95;1.73;;;;;;;12.48;47.97;102425.91;5637547;26;20485;-74
2024/04/22 09:09:11;;;;;;;2.80;1.50;;;;;;;12.50;46.59;102419.59;5642413;26;20007;-74
2024/04/22 09:11:49;;;;;;;3.97;1.40;;;;;;;12.80;50.37;102421.06;5646317;26;20031;-76
2024/04/22 09:14:21;;;;;;;7.70;1.20;;;;;;;12.72;48.00;102411.06;5640829;26;20035;-75
2024/04/22 09:16:53;;;;;;;3.67;1.20;;;;;;;12.84;47.83;102410.22;5637606;26;20000;-74
2024/04/22 09:19:25;;;;;;;4.25;1.20;;;;;;;12.77;46.72;102413.41;5636013;26;20009;-74
2024/04/22 09:21:59;;;;;;;3.55;1.10;;;;;;;12.87;46.98;102399.47;5637421;26;20044;-75
2024/04/22 09:24:31;;;;;;;2.97;1.45;;;;;;;12.86;49.35;102413.59;5636354;26;19999;-75
2024/04/22 09:27:04;;;;;;;4.30;1.33;;;;;;;12.76;48.18;102403.81;5635171;26;20056;-75
2024/04/22 09:29:45;;;;;;;3.35;1.60;;;;;;;12.85;48.53;102404.00;5633184;26;20031;-76
2024/04/22 09:32:20;;;;;;;3.47;1.45;;;;;;;12.68;49.83;102412.22;5640592;26;20016;-76
2024/04/22 09:34:56;;;;;;;4.45;1.45;;;;;;;12.85;48.02;102411.91;5638046;26;20054;-76
2024/04/22 09:37:30;;;;;;;4.60;1.20;;;;;;;12.91;49.24;102392.22;5626922;26;20035;-73
2024/04/22 09:40:03;;;;;;;5.05;1.17;;;;;;;13.32;49.34;102399.84;5637922;26;20038;-75
2024/04/22 09:42:39;;;;;;;3.80;1.30;;;;;;;13.49;45.56;102405.72;5633012;26;20014;-75
2024/04/22 09:45:13;;;;;;;3.88;1.25;;;;;;;13.46;45.91;102405.91;5629213;26;19999;-75
2024/04/22 09:47:47;;;;;;;3.72;1.50;;;;;;;13.19;45.44;102404.28;5637974;26;20000;-75
2024/04/22 09:50:19;;;;;;;9.30;1.50;;;;;;;13.05;45.39;102388.63;5633720;26;20003;-75
2024/04/22 09:52:52;;;;;;;4.35;1.10;;;;;;;13.04;43.60;102387.78;5629262;26;20014;-74
2024/04/22 09:55:24;;;;;;;4.35;1.20;;;;;;;13.30;45.24;102388.59;5635852;26;20035;-74
2024/04/22 09:57:59;;;;;;;2.38;1.00;;;;;;;13.27;43.48;102374.81;5632754;26;20392;-75
2024/04/22 10:00:31;;;;;;;3.33;1.25;;;;;;;13.18;44.49;102371.00;5637747;26;19999;-75
2024/04/22 10:03:03;;;;;;;2.08;1.10;;;;;;;13.23;43.63;102381.22;5634458;26;20054;-76
2024/04/22 10:05:37;;;;;;;3.35;1.30;;;;;;;13.27;43.57;102369.56;5632621;26;19999;-74
2024/04/22 10:08:09;;;;;;;3.60;1.10;;;;;;;13.24;44.11;102372.41;5635519;26;20562;-75
2024/04/22 10:10:41;;;;;;;3.53;1.20;;;;;;;13.31;42.73;102374.47;5640205;26;20015;-73
2024/04/22 10:13:14;;;;;;;3.85;1.30;;;;;;;13.24;43.02;102360.06;5641608;26;20000;-74
2024/04/22 10:15:46;;;;;;;2.45;1.00;;;;;;;13.54;43.54;102367.53;5643993;26;20035;-76
2024/04/22 10:18:19;;;;;;;3.00;0.93;;;;;;;13.81;41.98;102353.28;5637447;26;20377;-75
2024/04/22 10:20:55;;;;;;;2.38;1.10;;;;;;;14.17;41.61;102352.34;5642593;26;20631;-75
2024/04/22 10:23:26;;;;;;;2.80;0.88;;;;;;;14.29;39.50;102346.13;5649959;26;20488;-75
2024/04/22 10:25:58;;;;;;;2.35;1.02;;;;;;;14.43;40.27;102355.59;5640324;26;20003;-75
2024/04/22 10:28:30;;;;;;;3.05;1.35;;;;;;;14.66;42.29;102353.00;5642187;26;20057;-76
2024/04/22 10:31:02;;;;;;;2.53;1.13;;;;;;;14.50;40.81;102345.44;5640804;26;20003;-75
2024/04/22 10:33:34;;;;;;;2.85;1.15;;;;;;;14.40;40.89;102355.00;5639065;26;20008;-75
2024/04/22 10:36:06;;;;;;;1.80;0.82;;;;;;;14.11;39.03;102345.72;5640398;26;20011;-75
2024/04/22 10:38:38;;;;;;;3.73;1.20;;;;;;;14.07;41.56;102346.06;5636977;26;20014;-73
2024/04/22 10:41:11;;;;;;;3.97;1.30;;;;;;;13.97;43.78;102339.81;5644934;26;20230;-75
2024/04/22 10:43:45;;;;;;;3.80;1.30;;;;;;;13.97;41.75;102334.53;5638596;26;20038;-75
2024/04/22 10:46:17;;;;;;;3.05;1.20;;;;;;;14.12;41.50;102336.84;5638758;26;20465;-76
2024/04/22 10:48:51;;;;;;;3.28;1.20;;;;;;;14.30;42.85;102344.31;5640868;26;20080;-76
2024/04/22 10:51:23;;;;;;;2.95;1.25;;;;;;;14.25;40.58;102331.50;5640632;26;20000;-76
2024/04/22 10:53:55;;;;;;;2.38;1.00;;;;;;;14.32;40.78;102337.97;5637996;26;20067;-76
2024/04/22 10:56:27;;;;;;;4.78;1.30;;;;;;;14.39;40.34;102330.41;5642745;26;20003;-75
2024/04/22 10:58:59;;;;;;;3.45;1.58;;;;;;;14.54;43.61;102325.78;5640580;26;20003;-74
2024/04/22 11:01:32;;;;;;;1.90;1.10;;;;;;;14.53;41.33;102329.38;5639428;26;20014;-74
2024/04/22 11:04:04;;;;;;;2.80;1.13;;;;;;;14.38;37.99;102320.84;5640396;26;20011;-75
2024/04/22 11:06:37;;;;;;;3.85;1.52;;;;;;;14.36;37.61;102325.41;5644770;26;20532;-74
2024/04/22 11:09:10;;;;;;;3.20;1.10;;;;;;;14.34;38.07;102314.94;5641450;26;20002;-75
2024/04/22 11:11:42;;;;;;;3.05;1.30;;;;;;;14.31;37.11;102320.47;5639739;26;20011;-73
2024/04/22 11:14:14;;;;;;;2.92;1.20;;;;;;;14.26;38.01;102312.06;5643418;26;19996;-76
2024/04/22 11:16:46;;;;;;;3.90;1.60;;;;;;;14.32;36.85;102314.25;5641166;26;20467;-73
2024/04/22 11:19:19;;;;;;;2.55;0.88;;;;;;;14.54;36.59;102300.25;5638037;26;20013;-75
2024/04/22 11:21:50;;;;;;;2.42;0.90;;;;;;;14.48;36.84;102299.88;5638882;26;20031;-74
2024/04/22 11:24:22;;;;;;;2.30;1.20;;;;;;;14.45;37.09;102289.56;5638951;26;20018;-75
2024/04/22 11:26:54;;;;;;;2.30;1.10;;;;;;;14.51;37.03;102302.31;5635162;26;20082;-76
2024/04/22 11:29:27;;;;;;;3.42;1.45;;;;;;;14.38;37.17;102288.34;5637240;26;20006;-76
2024/04/22 11:32:00;;;;;;;2.78;1.20;;;;;;;14.28;37.18;102294.34;5634669;26;20003;-75
2024/04/22 11:34:32;;;;;;;2.10;0.93;;;;;;;14.07;38.19;102290.72;5638281;26;20000;-75
2024/04/22 11:37:04;;;;;;;2.92;1.20;;;;;;;13.93;39.19;102293.56;5637798;26;20019;-75
2024/04/22 11:39:36;;;;;;;6.10;1.55;;;;;;;13.82;38.04;102303.13;5638790;26;20000;-76
2024/04/22 11:42:08;;;;;;;16.45;2.35;;;;;;;13.39;42.05;102314.22;5638992;26;20000;-74
2024/04/22 11:44:40;;;;;;;13.13;2.35;;;;;;;13.07;44.26;102313.91;5636039;26;20003;-75
2024/04/22 11:47:12;;;;;;;5.43;1.85;;;;;;;12.81;46.61;102328.06;5633760;26;20025;-75
2024/04/22 11:49:44;;;;;;;5.18;1.40;;;;;;;12.41;49.65;102322.94;5632591;26;20153;-75
2024/04/22 11:52:16;;;;;;;3.30;1.13;;;;;;;12.21;52.39;102345.34;5634438;26;20015;-75
2024/04/22 11:54:48;;;;;;;2.17;1.27;;;;;;;12.14;55.67;102342.28;5625738;26;20025;-75
2024/04/22 11:57:20;;;;;;;4.55;1.52;;;;;;;12.12;53.50;102343.31;5636346;26;20003;-75
2024/04/22 11:59:52;;;;;;;4.25;1.70;;;;;;;12.12;56.71;102344.19;5640454;26;20050;-74